Time;durP1;ratioP1;P1;durP2;ratioP2;P2;SDS_P1;SDS_P2;PMS_P1;PMS_P2;Temp;Humidity;BMP_temperature;BMP_pressure;BME280_temperature;BME280_humidity;BME280_pressure;Samples;Min_cycle;Max_cycle;Signal;HPM_P1;HPM_P2
2021/08/02 06:11:15;;;;;;;13.32;1.45;;;17.80;99.90;;;;;;3615678;39;20405;-89
2021/08/02 06:13:44;;;;;;;5.88;1.35;;;17.80;99.90;;;;;;3620596;39;20043;-89
2021/08/02 06:16:10;;;;;;;10.50;1.83;;;17.70;99.90;;;;;;3618354;39;20054;-88
2021/08/02 06:18:36;;;;;;;7.80;1.33;;;17.60;99.90;;;;;;3615961;39;20756;-88
2021/08/02 06:21:02;;;;;;;7.50;1.50;;;17.40;99.90;;;;;;3617123;39;20046;-91
2021/08/02 06:23:30;;;;;;;7.88;1.63;;;17.40;99.90;;;;;;3618518;39;20108;-88
2021/08/02 06:25:56;;;;;;;6.13;1.42;;;17.20;99.90;;;;;;3616110;39;20086;-89
2021/08/02 06:28:22;;;;;;;6.50;1.00;;;17.10;99.90;;;;;;3602761;39;20058;-88
2021/08/02 06:30:48;;;;;;;6.47;1.75;;;17.30;99.90;;;;;;3617732;39;20410;-89
2021/08/02 06:33:14;;;;;;;10.25;1.60;;;17.30;99.90;;;;;;3608408;39;20047;-85
2021/08/02 06:35:40;;;;;;;7.00;1.77;;;17.20;99.90;;;;;;3609766;39;20144;-87
2021/08/02 06:38:06;;;;;;;6.95;1.83;;;17.30;99.90;;;;;;3603556;39;20065;-87
2021/08/02 06:40:31;;;;;;;7.00;1.33;;;17.40;99.90;;;;;;3601440;39;20341;-86
2021/08/02 06:42:57;;;;;;;3.63;1.00;;;17.60;99.90;;;;;;3601638;39;20056;-85
2021/08/02 06:45:23;;;;;;;6.15;0.95;;;17.50;99.90;;;;;;3602229;39;20055;-85
2021/08/02 06:47:48;;;;;;;7.03;1.25;;;17.70;99.90;;;;;;3607415;39;20059;-87
2021/08/02 06:50:15;;;;;;;5.22;1.10;;;17.60;99.90;;;;;;3605631;39;20370;-85
2021/08/02 06:52:41;;;;;;;5.30;1.15;;;17.70;99.90;;;;;;3622287;39;20048;-86
2021/08/02 06:55:07;;;;;;;10.82;1.35;;;17.90;99.90;;;;;;3607204;39;20200;-87
2021/08/02 06:57:34;;;;;;;8.02;1.35;;;17.80;99.90;;;;;;3603192;39;20578;-87
2021/08/02 07:00:00;;;;;;;5.47;1.27;;;17.90;99.90;;;;;;3603361;39;20054;-87
2021/08/02 07:02:26;;;;;;;8.80;1.67;;;18.00;99.90;;;;;;3608951;39;20055;-85
2021/08/02 07:04:51;;;;;;;8.73;1.25;;;17.70;99.90;;;;;;3609572;39;20330;-86
2021/08/02 07:07:17;;;;;;;8.73;1.77;;;18.20;99.90;;;;;;3612986;39;20062;-88
2021/08/02 07:09:43;;;;;;;8.07;2.22;;;18.40;99.90;;;;;;3606284;39;20394;-88
2021/08/02 07:12:09;;;;;;;5.60;1.10;;;18.40;99.90;;;;;;3611011;39;20050;-86
2021/08/02 07:14:35;;;;;;;5.45;1.23;;;18.30;99.90;;;;;;3601609;39;20055;-83
2021/08/02 07:17:01;;;;;;;3.97;0.95;;;18.60;99.90;;;;;;3608473;39;20055;-88
2021/08/02 07:19:26;;;;;;;6.82;0.93;;;18.90;99.90;;;;;;3601609;39;20205;-91
2021/08/02 07:21:52;;;;;;;7.15;1.20;;;18.80;99.90;;;;;;3595574;39;20079;-88
2021/08/02 07:24:18;;;;;;;7.40;1.00;;;19.20;99.90;;;;;;3600254;39;20070;-88
2021/08/02 07:26:43;;;;;;;6.65;1.08;;;19.10;99.90;;;;;;3607624;39;20047;-88
2021/08/02 07:29:09;;;;;;;8.13;1.45;;;19.60;99.90;;;;;;3611315;39;20040;-91
2021/08/02 07:31:35;;;;;;;7.20;1.40;;;19.50;99.90;;;;;;3602759;39;20373;-88
2021/08/02 07:34:01;;;;;;;7.57;1.00;;;19.50;99.90;;;;;;3598872;39;20055;-89
2021/08/02 07:36:27;;;;;;;4.35;1.25;;;19.90;99.90;;;;;;3607801;39;20051;-88
2021/08/02 07:38:52;;;;;;;5.07;1.25;;;19.80;99.90;;;;;;3621067;39;20409;-91
2021/08/02 07:41:18;;;;;;;5.53;0.90;;;19.90;99.90;;;;;;3598044;39;20040;-88
2021/08/02 07:43:44;;;;;;;7.18;1.13;;;20.10;99.90;;;;;;3603851;39;20050;-88
2021/08/02 07:46:13;;;;;;;1.77;0.80;;;20.40;99.90;;;;;;3597662;39;20058;-88
2021/08/02 07:48:40;;;;;;;4.95;1.08;;;20.30;99.90;;;;;;3605433;39;20331;-88
2021/08/02 07:51:06;;;;;;;5.82;0.98;;;19.70;99.90;;;;;;3609668;39;20070;-91
2021/08/02 07:53:32;;;;;;;11.80;2.67;;;19.80;99.90;;;;;;3601893;39;20401;-90
2021/08/02 07:55:57;;;;;;;5.10;1.05;;;19.70;99.90;;;;;;3612836;39;20047;-87
2021/08/02 07:58:23;;;;;;;7.75;1.30;;;19.90;99.90;;;;;;3610542;39;20040;-89
2021/08/02 08:00:49;;;;;;;6.03;1.35;;;20.00;99.90;;;;;;3589651;39;20048;-88
2021/08/02 08:03:19;;;;;;;4.40;1.20;;;19.70;99.90;;;;;;3604953;39;20040;-90
2021/08/02 08:05:45;;;;;;;6.07;1.20;;;19.40;99.90;;;;;;3617099;39;20132;-88
2021/08/02 08:08:11;;;;;;;6.70;1.00;;;19.10;99.90;;;;;;3635345;22;20337;-72
2021/08/02 08:10:36;;;;;;;5.63;1.20;;;18.70;99.90;;;;;;3573020;40;20049;-73
2021/08/02 08:13:02;;;;;;;6.80;1.23;;;18.60;99.90;;;;;;3573026;40;20800;-73
2021/08/02 08:15:29;;;;;;;4.97;1.25;;;18.80;99.90;;;;;;3573690;40;20053;-71
2021/08/02 08:17:54;;;;;;;6.40;1.50;;;18.80;99.90;;;;;;3572041;40;20064;-71
2021/08/02 08:20:22;;;;;;;4.75;1.20;;;18.70;99.90;;;;;;3572865;40;20041;-72
2021/08/02 08:22:48;;;;;;;8.23;1.10;;;18.80;99.90;;;;;;3573983;40;20390;-71
2021/08/02 08:25:14;;;;;;;4.85;0.98;;;18.50;99.90;;;;;;3572073;40;20049;-73
2021/08/02 08:27:40;;;;;;;5.57;1.67;;;18.60;99.90;;;;;;3568377;40;20448;-71
2021/08/02 08:30:07;;;;;;;7.82;1.58;;;19.00;99.90;;;;;;3571420;40;20298;-72
2021/08/02 08:32:33;;;;;;;10.13;2.15;;;18.80;99.90;;;;;;3572500;40;20339;-71
2021/08/02 08:34:58;;;;;;;6.80;1.33;;;19.10;99.90;;;;;;3573417;40;20418;-70
2021/08/02 08:37:24;;;;;;;7.40;1.70;;;19.10;99.90;;;;;;3573155;40;20057;-73
2021/08/02 08:39:50;;;;;;;5.60;1.45;;;19.10;99.90;;;;;;3574035;40;20084;-71
2021/08/02 08:42:16;;;;;;;8.75;1.13;;;19.10;99.90;;;;;;3573807;40;20064;-70
2021/08/02 08:44:42;;;;;;;6.07;1.00;;;18.90;99.90;;;;;;3573622;40;20052;-71
2021/08/02 08:47:08;;;;;;;9.45;1.50;;;18.20;99.90;;;;;;3573063;40;20056;-70
2021/08/02 08:49:34;;;;;;;5.22;1.02;;;18.20;99.90;;;;;;3573449;40;20343;-72
2021/08/02 08:52:00;;;;;;;5.32;1.00;;;18.20;99.90;;;;;;3573236;40;20045;-72
2021/08/02 08:54:30;;;;;;;5.93;0.93;;;18.20;99.90;;;;;;3571859;40;20406;-73
2021/08/02 08:56:56;;;;;;;5.95;1.02;;;18.70;99.90;;;;;;3573108;40;20048;-71
2021/08/02 08:59:22;;;;;;;3.67;1.13;;;18.90;99.90;;;;;;3573625;40;20052;-71
2021/08/02 09:01:47;;;;;;;3.22;0.73;;;19.10;99.90;;;;;;3573065;40;20088;-73
2021/08/02 09:04:13;;;;;;;3.90;1.23;;;19.00;99.90;;;;;;3572467;40;20099;-72
2021/08/02 09:06:49;;;;;;;3.33;0.82;;;19.80;99.90;;;;;;3569663;40;20295;-73
2021/08/02 09:09:35;;;;;;;6.20;1.10;;;19.60;99.90;;;;;;3573081;40;20091;-74
2021/08/02 09:12:14;;;;;;;2.88;1.00;;;20.10;99.90;;;;;;3572169;40;20032;-74
2021/08/02 09:14:54;;;;;;;7.43;1.10;;;20.40;99.90;;;;;;3573182;40;20049;-73
2021/08/02 09:17:35;;;;;;;4.93;1.38;;;21.20;99.90;;;;;;3570862;40;20085;-73
2021/08/02 09:20:03;;;;;;;3.53;0.60;;;22.30;99.90;;;;;;3573725;40;20056;-72
2021/08/02 09:22:32;;;;;;;4.50;0.77;;;21.20;99.90;;;;;;3572760;40;20391;-70
2021/08/02 09:25:13;;;;;;;3.17;1.02;;;21.40;99.90;;;;;;3573002;40;20057;-71
2021/08/02 09:27:40;;;;;;;4.07;0.82;;;22.30;99.90;;;;;;3572350;40;20051;-71
2021/08/02 09:30:16;;;;;;;4.38;0.90;;;21.80;99.90;;;;;;3573161;40;20414;-70
2021/08/02 09:33:11;;;;;;;4.18;0.80;;;21.50;99.90;;;;;;3572977;40;20052;-71
2021/08/02 09:35:40;;;;;;;2.38;0.70;;;21.90;99.90;;;;;;3569412;40;20172;-71
2021/08/02 09:38:09;;;;;;;9.07;0.85;;;22.60;99.90;;;;;;3572791;40;20085;-71
2021/08/02 09:40:38;;;;;;;5.35;0.80;;;23.80;99.90;;;;;;3571125;40;20061;-71
2021/08/02 09:43:03;;;;;;;4.63;0.90;;;24.60;98.10;;;;;;3572439;40;20382;-71
2021/08/02 09:45:46;;;;;;;4.60;0.52;;;23.70;98.50;;;;;;3572400;40;20057;-73
2021/08/02 09:48:17;;;;;;;2.17;0.85;;;23.30;98.00;;;;;;3571360;40;20057;-71
2021/08/02 09:50:44;;;;;;;2.28;0.85;;;22.30;99.90;;;;;;3572902;40;20060;-73
2021/08/02 09:53:17;;;;;;;2.55;0.85;;;22.60;99.90;;;;;;3573120;40;20037;-72
2021/08/02 09:55:45;;;;;;;1.23;0.60;;;22.80;99.90;;;;;;3572907;40;20337;-73
2021/08/02 09:58:14;;;;;;;4.47;0.98;;;22.70;99.90;;;;;;3572887;40;20061;-71
2021/08/02 10:00:40;;;;;;;4.25;1.27;;;23.50;99.90;;;;;;3572094;40;20045;-73
2021/08/02 10:03:07;;;;;;;2.70;0.60;;;23.60;97.10;;;;;;3572843;40;20075;-73
2021/08/02 10:05:36;;;;;;;3.22;1.13;;;23.60;99.90;;;;;;3573291;40;20133;-72
2021/08/02 10:08:03;;;;;;;0.93;0.52;;;23.90;99.90;;;;;;3572422;40;20122;-73
2021/08/02 10:10:28;;;;;;;3.20;0.68;;;23.50;99.70;;;;;;3573371;40;20313;-72
2021/08/02 10:12:55;;;;;;;4.25;1.10;;;22.90;99.90;;;;;;3572793;40;20142;-73
2021/08/02 10:15:26;;;;;;;5.05;1.75;;;22.60;99.90;;;;;;3572381;40;20048;-74
2021/08/02 10:17:56;;;;;;;7.13;2.58;;;22.70;99.90;;;;;;3572507;40;20059;-73
2021/08/02 10:20:29;;;;;;;4.07;1.17;;;23.10;99.90;;;;;;3572801;40;20055;-74
2021/08/02 10:22:56;;;;;;;3.70;1.42;;;23.40;99.90;;;;;;3571509;40;20338;-72
2021/08/02 10:25:34;;;;;;;17.20;6.50;;;24.20;97.20;;;;;;3569714;40;20433;-72
2021/08/02 10:28:10;;;;;;;5.45;1.30;;;23.80;99.90;;;;;;3572892;40;20064;-72
2021/08/02 10:30:37;;;;;;;9.52;4.10;;;23.00;99.90;;;;;;3571472;40;20270;-73
2021/08/02 10:33:03;;;;;;;2.45;0.70;;;23.00;99.90;;;;;;3572615;40;20052;-73
2021/08/02 10:35:40;;;;;;;3.03;1.20;;;22.90;98.40;;;;;;3572737;40;20053;-73
2021/08/02 10:38:17;;;;;;;4.80;1.98;;;22.60;98.60;;;;;;3572629;40;20049;-72
2021/08/02 10:40:54;;;;;;;3.30;0.73;;;22.30;99.90;;;;;;3572885;40;20063;-71
2021/08/02 10:43:28;;;;;;;2.58;0.65;;;22.60;99.90;;;;;;3572677;40;20134;-73
2021/08/02 10:45:56;;;;;;;3.92;0.82;;;21.50;99.90;;;;;;3571656;40;20232;-71
2021/08/02 10:48:26;;;;;;;2.28;1.05;;;21.70;99.90;;;;;;3572238;40;20037;-71
2021/08/02 10:50:51;;;;;;;2.90;0.47;;;22.60;99.90;;;;;;3572049;40;20053;-72
2021/08/02 10:53:17;;;;;;;3.58;1.23;;;21.80;99.60;;;;;;3572112;40;20146;-71
2021/08/02 10:55:49;;;;;;;2.55;0.85;;;22.40;99.10;;;;;;3572362;40;20299;-72
2021/08/02 10:58:50;;;;;;;1.48;0.65;;;22.60;99.90;;;;;;3568774;40;20053;-70
2021/08/02 11:01:17;;;;;;;2.03;0.60;;;23.30;99.90;;;;;;3568837;40;20049;-69
2021/08/02 11:03:43;;;;;;;1.35;0.40;;;22.80;99.90;;;;;;3574065;40;20402;-70
2021/08/02 11:06:14;;;;;;;2.40;0.60;;;22.60;99.90;;;;;;3574150;40;20231;-70
2021/08/02 11:08:43;;;;;;;2.25;0.45;;;22.80;99.90;;;;;;3573941;40;20075;-70
2021/08/02 11:11:10;;;;;;;3.65;0.70;;;22.00;99.90;;;;;;3573343;40;20048;-70
2021/08/02 11:13:36;;;;;;;2.25;1.00;;;22.00;99.90;;;;;;3573565;40;20053;-71
2021/08/02 11:16:04;;;;;;;1.85;0.80;;;20.50;99.90;;;;;;3573306;40;20057;-72
2021/08/02 11:18:30;;;;;;;0.93;0.55;;;20.40;99.90;;;;;;3573314;40;20056;-69
2021/08/02 11:20:56;;;;;;;4.40;1.02;;;19.80;99.90;;;;;;3573896;40;20300;-69
2021/08/02 11:23:33;;;;;;;1.73;0.50;;;19.50;99.90;;;;;;3573388;40;20056;-69
2021/08/02 11:26:09;;;;;;;2.53;0.90;;;19.60;99.90;;;;;;3567182;40;20049;-70
2021/08/02 11:28:48;;;;;;;3.40;0.47;;;19.50;99.90;;;;;;3570448;40;20040;-70
2021/08/02 11:31:14;;;;;;;3.38;0.80;;;19.90;99.90;;;;;;3573133;40;20433;-70
2021/08/02 11:33:41;;;;;;;4.22;0.73;;;20.20;99.90;;;;;;3573878;40;20052;-71
2021/08/02 11:36:17;;;;;;;4.20;0.77;;;20.40;99.90;;;;;;3572231;40;20351;-70
2021/08/02 11:38:44;;;;;;;2.83;0.70;;;20.70;99.90;;;;;;3573046;40;20464;-70
2021/08/02 11:41:10;;;;;;;2.35;0.50;;;20.40;99.90;;;;;;3573199;40;20092;-70
2021/08/02 11:43:43;;;;;;;3.17;0.70;;;20.30;99.90;;;;;;3573310;40;20492;-70
2021/08/02 11:46:11;;;;;;;2.45;0.68;;;20.50;99.90;;;;;;3572366;40;20072;-70
2021/08/02 11:48:44;;;;;;;2.85;0.55;;;20.70;99.90;;;;;;3571840;40;20085;-70
2021/08/02 11:51:12;;;;;;;;;;;20.90;99.90;;;;;;3573552;40;20057;-70
2021/08/02 11:53:38;;;;;;;2.67;0.77;;;20.70;99.90;;;;;;3572987;40;19948;-70
2021/08/02 11:56:05;;;;;;;2.90;0.63;;;20.60;99.90;;;;;;3573518;40;20272;-70
2021/08/02 11:58:41;;;;;;;1.70;0.70;;;21.30;99.90;;;;;;3573400;40;20048;-69
2021/08/02 12:01:08;;;;;;;2.85;0.77;;;21.70;99.90;;;;;;3572279;40;20053;-69
2021/08/02 12:03:35;;;;;;;3.25;1.00;;;21.70;99.90;;;;;;3572003;40;20569;-70
2021/08/02 12:06:08;;;;;;;1.08;0.30;;;22.00;99.90;;;;;;3573034;40;20052;-70
2021/08/02 12:08:35;;;;;;;2.63;1.02;;;22.00;99.90;;;;;;3572356;40;20293;-71
2021/08/02 12:11:03;;;;;;;2.70;0.40;;;22.10;99.90;;;;;;3570732;40;20089;-70
2021/08/02 12:13:47;;;;;;;1.38;0.50;;;21.70;99.90;;;;;;3568698;40;20342;-71
2021/08/02 12:16:30;;;;;;;1.48;0.50;;;21.80;99.90;;;;;;3572959;40;20113;-71
2021/08/02 12:19:09;;;;;;;2.30;0.60;;;21.90;99.90;;;;;;3573065;40;20076;-71
2021/08/02 12:21:36;;;;;;;2.92;0.68;;;21.60;99.90;;;;;;3573076;40;20049;-70
2021/08/02 12:24:07;;;;;;;1.95;0.93;;;21.40;99.90;;;;;;3573099;40;20091;-70
2021/08/02 12:26:48;;;;;;;3.42;0.70;;;21.10;99.90;;;;;;3564661;40;20081;-72
2021/08/02 12:29:22;;;;;;;4.60;1.15;;;20.70;99.90;;;;;;3578159;40;20318;-71
2021/08/02 12:32:02;;;;;;;3.33;1.20;;;20.70;99.90;;;;;;3572505;40;20113;-72
2021/08/02 12:34:28;;;;;;;6.80;1.08;;;20.70;99.90;;;;;;3573195;40;20053;-71
2021/08/02 12:36:59;;;;;;;6.32;1.13;;;20.10;99.90;;;;;;3574381;40;20053;-71
2021/08/02 12:39:27;;;;;;;4.38;1.50;;;20.50;99.90;;;;;;3572879;40;20075;-70
2021/08/02 12:41:53;;;;;;;4.22;1.33;;;20.40;99.90;;;;;;3573298;40;20055;-71
2021/08/02 12:44:18;;;;;;;5.50;1.17;;;20.20;99.90;;;;;;3571607;40;20089;-71
2021/08/02 12:46:44;;;;;;;3.58;1.27;;;20.00;99.90;;;;;;3572339;40;20138;-71
2021/08/02 12:49:10;;;;;;;6.75;1.20;;;20.20;99.90;;;;;;3572200;40;20063;-70
2021/08/02 12:51:35;;;;;;;5.15;1.58;;;20.20;99.90;;;;;;3572648;40;20044;-72
2021/08/02 12:54:01;;;;;;;3.20;1.15;;;20.30;99.90;;;;;;3572826;40;20134;-71
2021/08/02 12:56:26;;;;;;;4.38;1.20;;;20.00;99.90;;;;;;3569103;40;20057;-70
2021/08/02 12:58:52;;;;;;;4.28;1.25;;;20.70;99.90;;;;;;3572627;40;20367;-71
2021/08/02 13:01:18;;;;;;;3.50;1.02;;;21.00;99.90;;;;;;3572705;40;20320;-69
2021/08/02 13:03:43;;;;;;;2.97;0.57;;;21.90;99.90;;;;;;3572164;40;20322;-70
2021/08/02 13:06:14;;;;;;;2.75;0.63;;;22.10;99.90;;;;;;3572942;40;20169;-69
2021/08/02 13:08:40;;;;;;;1.48;0.73;;;22.10;99.90;;;;;;3573023;40;20370;-70
2021/08/02 13:11:06;;;;;;;7.00;1.10;;;21.80;99.90;;;;;;3572085;40;20056;-70
2021/08/02 13:13:32;;;;;;;1.70;0.50;;;21.90;99.90;;;;;;3572722;40;20585;-70
2021/08/02 13:15:58;;;;;;;1.77;0.55;;;22.20;99.90;;;;;;3572470;40;20084;-71
2021/08/02 13:18:24;;;;;;;2.33;0.77;;;21.90;99.90;;;;;;3572614;40;20060;-70
2021/08/02 13:20:51;;;;;;;1.27;0.43;;;22.30;99.90;;;;;;3572228;40;20052;-71
2021/08/02 13:28:33;;;;;;;0.75;0.30;;;21.10;99.90;;;;;;3571971;40;20140;-70
2021/08/02 13:30:59;;;;;;;3.20;0.98;;;21.90;99.90;;;;;;3572155;40;20053;-70
2021/08/02 13:33:24;;;;;;;1.30;0.50;;;21.50;99.90;;;;;;3572191;40;20377;-71
2021/08/02 13:35:50;;;;;;;1.80;0.75;;;21.70;99.90;;;;;;3572952;40;20234;-71
2021/08/02 13:38:15;;;;;;;1.90;0.63;;;21.90;99.90;;;;;;3571865;40;20211;-72
2021/08/02 13:40:41;;;;;;;2.90;0.50;;;21.80;99.90;;;;;;3571613;40;20066;-70
2021/08/02 13:43:07;;;;;;;3.38;0.50;;;22.50;99.90;;;;;;3572317;40;20056;-69
2021/08/02 13:45:38;;;;;;;2.25;0.40;;;22.50;99.90;;;;;;3571114;40;20076;-70
2021/08/02 13:48:05;;;;;;;4.15;0.82;;;21.50;99.90;;;;;;3572076;40;20075;-70
2021/08/02 13:50:31;;;;;;;2.53;0.70;;;21.80;99.90;;;;;;3572239;40;20049;-73
2021/08/02 13:52:57;;;;;;;1.23;0.40;;;21.70;99.90;;;;;;3572778;40;20428;-71
2021/08/02 13:55:23;;;;;;;2.67;0.60;;;21.90;99.90;;;;;;3569914;40;20093;-70
2021/08/02 13:57:48;;;;;;;1.27;0.50;;;22.00;99.90;;;;;;3567552;40;20732;-70
2021/08/02 14:00:15;;;;;;;2.55;0.47;;;22.50;99.90;;;;;;3567120;40;20081;-69
2021/08/02 14:02:41;;;;;;;2.15;0.90;;;22.30;99.90;;;;;;3567802;40;20456;-69
2021/08/02 14:05:08;;;;;;;2.38;0.73;;;21.70;99.90;;;;;;3565372;40;20057;-70
2021/08/02 14:07:34;;;;;;;2.72;0.90;;;21.40;99.90;;;;;;3565713;40;20049;-71
2021/08/02 14:10:00;;;;;;;6.65;1.40;;;21.70;99.90;;;;;;3567169;40;20133;-71
2021/08/02 14:12:33;;;;;;;4.60;1.10;;;21.50;99.90;;;;;;3567350;40;20049;-70
2021/08/02 14:15:07;;;;;;;5.22;0.85;;;21.50;99.90;;;;;;3578890;40;20045;-70
2021/08/02 14:18:04;;;;;;;4.05;1.30;;;21.30;99.90;;;;;;3567651;40;20041;-70
2021/08/02 14:20:32;;;;;;;3.40;0.80;;;20.60;99.90;;;;;;3560074;40;20155;-70
2021/08/02 14:22:58;;;;;;;1.73;0.60;;;21.00;99.90;;;;;;3570541;40;20137;-71
2021/08/02 14:25:25;;;;;;;2.35;0.82;;;21.10;99.90;;;;;;3571396;40;20065;-71
2021/08/02 14:27:52;;;;;;;4.15;1.25;;;20.50;99.90;;;;;;3572697;40;20274;-71
2021/08/02 14:30:18;;;;;;;3.67;1.02;;;20.60;99.90;;;;;;3571667;40;20295;-71
2021/08/02 14:32:44;;;;;;;4.93;2.30;;;20.80;99.90;;;;;;3566494;40;20081;-71
2021/08/02 14:35:10;;;;;;;5.78;0.70;;;20.50;99.90;;;;;;3567233;40;20057;-70
2021/08/02 14:37:41;;;;;;;5.35;0.90;;;19.60;99.90;;;;;;3573928;40;20045;-69
2021/08/02 14:40:11;;;;;;;2.92;0.68;;;20.10;99.90;;;;;;3573695;40;20591;-70
2021/08/02 14:42:42;;;;;;;1.95;0.57;;;20.50;99.90;;;;;;3574070;40;20040;-70
2021/08/02 14:45:08;;;;;;;2.92;0.75;;;20.50;99.90;;;;;;3573319;40;20056;-69
2021/08/02 14:47:35;;;;;;;1.77;0.60;;;20.30;99.90;;;;;;3573443;40;20329;-70
2021/08/02 14:50:07;;;;;;;5.15;0.95;;;20.20;99.90;;;;;;3573476;40;20039;-72
2021/08/02 14:52:42;;;;;;;7.50;1.50;;;20.00;99.90;;;;;;3574223;40;20367;-69
2021/08/02 14:55:11;;;;;;;6.90;0.52;;;20.30;99.90;;;;;;3573622;40;20322;-70
2021/08/02 14:57:41;;;;;;;5.40;0.88;;;20.10;99.90;;;;;;3574015;40;20053;-71
2021/08/02 15:00:09;;;;;;;4.50;1.08;;;20.60;99.90;;;;;;3572931;40;20211;-72
2021/08/02 15:02:46;;;;;;;2.03;0.43;;;20.90;99.90;;;;;;3573803;40;20490;-70
2021/08/02 15:05:13;;;;;;;2.78;0.75;;;20.60;99.90;;;;;;3573403;40;20044;-71
2021/08/02 15:07:44;;;;;;;3.58;1.05;;;20.90;99.90;;;;;;3572869;40;20060;-71
2021/08/02 15:10:12;;;;;;;3.70;0.55;;;20.70;99.90;;;;;;3572555;40;20435;-70
2021/08/02 15:12:38;;;;;;;3.25;0.50;;;20.50;99.90;;;;;;3573026;40;20069;-71
2021/08/02 15:15:06;;;;;;;3.15;0.88;;;20.80;99.90;;;;;;3571635;40;20329;-70
2021/08/02 15:17:33;;;;;;;2.72;1.08;;;21.00;99.90;;;;;;3571535;40;20069;-71
2021/08/02 15:20:01;;;;;;;4.13;0.60;;;21.00;99.90;;;;;;3573683;40;20053;-71
2021/08/02 15:22:40;;;;;;;2.72;0.75;;;20.20;99.90;;;;;;3572893;40;20545;-72
2021/08/02 15:25:13;;;;;;;4.13;0.77;;;19.80;99.90;;;;;;3571924;40;20057;-70
2021/08/02 15:27:39;;;;;;;2.83;1.10;;;20.10;99.90;;;;;;3568395;40;20044;-72
2021/08/02 15:30:07;;;;;;;5.35;0.73;;;19.90;99.90;;;;;;3571410;40;20064;-71
2021/08/02 15:32:40;;;;;;;3.47;0.70;;;19.90;99.90;;;;;;3572756;40;20060;-70
2021/08/02 15:35:06;;;;;;;;;;;19.80;99.90;;;;;;3570142;40;20114;-71
2021/08/02 15:37:36;;;;;;;2.28;0.50;;;19.90;99.90;;;;;;3572098;40;19936;-72
2021/08/02 15:40:05;;;;;;;3.17;1.00;;;20.00;99.90;;;;;;3572461;40;20061;-72
2021/08/02 15:42:30;;;;;;;6.78;0.82;;;19.80;99.90;;;;;;3573518;40;20055;-72
2021/08/02 15:45:09;;;;;;;3.70;0.50;;;19.50;99.90;;;;;;3572985;40;20049;-72
2021/08/02 15:47:35;;;;;;;6.68;0.75;;;19.70;99.90;;;;;;3573108;40;20041;-72
2021/08/02 15:50:04;;;;;;;2.97;0.77;;;19.70;99.90;;;;;;3573063;40;20045;-72
2021/08/02 15:53:02;;;;;;;1.75;0.60;;;19.70;99.90;;;;;;3573706;40;20076;-71
2021/08/02 15:55:30;;;;;;;3.35;0.50;;;19.60;99.90;;;;;;3567894;40;20623;-73
2021/08/02 15:58:04;;;;;;;4.50;0.80;;;19.80;99.90;;;;;;3573751;40;20057;-72
2021/08/02 16:00:33;;;;;;;2.75;0.63;;;20.10;99.90;;;;;;3573380;40;20423;-72
2021/08/02 16:03:37;;;;;;;1.15;0.35;;;20.10;99.90;;;;;;3573933;40;20376;-71
2021/08/02 16:06:05;;;;;;;2.78;0.70;;;20.30;99.90;;;;;;3574005;40;20195;-72
2021/08/02 16:08:52;;;;;;;5.43;0.70;;;20.30;99.90;;;;;;3573251;40;20338;-74
2021/08/02 16:11:40;;;;;;;4.53;0.65;;;20.40;99.90;;;;;;3573311;40;20052;-73
2021/08/02 16:14:07;;;;;;;1.80;0.60;;;20.30;99.90;;;;;;3570849;40;20056;-71
2021/08/02 16:16:33;;;;;;;4.10;0.65;;;20.20;99.90;;;;;;3573100;40;20053;-72
2021/08/02 16:19:02;;;;;;;6.25;0.45;;;20.10;99.90;;;;;;3573360;40;20407;-73
2021/08/02 16:21:28;;;;;;;4.85;0.60;;;19.60;99.90;;;;;;3573552;40;20068;-74
2021/08/02 16:23:55;;;;;;;1.92;0.52;;;20.10;99.90;;;;;;3573534;40;20055;-72
2021/08/02 16:26:22;;;;;;;4.55;0.90;;;19.70;99.90;;;;;;3572803;40;20335;-73
2021/08/02 16:28:48;;;;;;;3.38;0.70;;;19.80;99.90;;;;;;3573163;40;20055;-74
2021/08/02 16:31:14;;;;;;;6.00;0.80;;;19.50;99.90;;;;;;3572052;40;20404;-73
2021/08/02 16:33:40;;;;;;;2.15;0.47;;;19.10;99.90;;;;;;3573792;40;20053;-72
2021/08/02 16:36:06;;;;;;;3.90;0.73;;;19.60;99.90;;;;;;3573816;40;20052;-72
2021/08/02 16:38:32;;;;;;;3.70;0.98;;;19.20;99.90;;;;;;3572654;40;20053;-73
2021/08/02 16:40:58;;;;;;;5.05;0.95;;;19.60;99.90;;;;;;3573104;40;20049;-72
2021/08/02 16:43:24;;;;;;;1.67;0.55;;;19.60;99.90;;;;;;3572917;40;20253;-72
2021/08/02 16:45:50;;;;;;;2.25;0.43;;;19.80;99.90;;;;;;3572914;40;20076;-73
2021/08/02 16:48:15;;;;;;;2.28;0.45;;;20.00;99.90;;;;;;3573016;40;20052;-72
2021/08/02 16:50:41;;;;;;;1.48;0.70;;;20.20;99.90;;;;;;3573336;40;20399;-72
2021/08/02 16:53:08;;;;;;;3.72;0.47;;;19.90;99.90;;;;;;3573042;40;20391;-73
2021/08/02 16:55:33;;;;;;;2.15;0.32;;;19.90;99.90;;;;;;3573291;40;20385;-73
2021/08/02 16:57:59;;;;;;;2.92;0.50;;;19.80;99.90;;;;;;3572832;40;20288;-73
2021/08/02 17:00:25;;;;;;;4.45;0.70;;;19.60;99.90;;;;;;3571851;40;20246;-75
2021/08/02 17:02:50;;;;;;;3.28;0.60;;;19.50;99.90;;;;;;3573013;40;20088;-71
2021/08/02 17:05:16;;;;;;;1.42;0.40;;;20.00;99.90;;;;;;3572546;40;20041;-73
2021/08/02 17:07:42;;;;;;;4.07;0.70;;;19.90;99.90;;;;;;3572690;40;20418;-75
2021/08/02 17:10:07;;;;;;;3.72;0.40;;;20.00;99.90;;;;;;3572458;40;20085;-73
2021/08/02 17:12:33;;;;;;;2.30;0.30;;;20.00;99.90;;;;;;3572517;40;20436;-72
2021/08/02 17:14:59;;;;;;;1.02;0.38;;;19.80;99.90;;;;;;3572482;40;20095;-73
2021/08/02 17:17:24;;;;;;;1.88;0.35;;;20.00;99.90;;;;;;3572815;40;20318;-73
2021/08/02 17:19:50;;;;;;;3.45;0.40;;;19.80;99.90;;;;;;3572183;40;20112;-72
2021/08/02 17:22:16;;;;;;;1.45;0.40;;;19.60;99.90;;;;;;3572199;40;20052;-73
2021/08/02 17:24:41;;;;;;;3.50;0.63;;;19.80;99.90;;;;;;3571789;40;20102;-72
2021/08/02 17:27:08;;;;;;;1.67;0.35;;;19.80;99.90;;;;;;3573088;40;20145;-72
2021/08/02 17:29:33;;;;;;;1.40;0.40;;;19.60;99.90;;;;;;3572965;40;20061;-71
2021/08/02 17:31:59;;;;;;;4.57;1.13;;;19.30;99.90;;;;;;3573009;40;20059;-72
2021/08/02 17:34:25;;;;;;;0.77;0.47;;;19.10;99.90;;;;;;3573301;40;20064;-72
2021/08/02 17:36:51;;;;;;;3.35;0.60;;;19.30;99.90;;;;;;3572665;40;20205;-72
2021/08/02 17:39:18;;;;;;;2.55;0.50;;;18.90;99.90;;;;;;3571736;40;20060;-72
2021/08/02 17:41:44;;;;;;;3.13;1.20;;;19.10;99.90;;;;;;3572909;40;20056;-72
2021/08/02 17:44:09;;;;;;;1.73;0.40;;;18.90;99.90;;;;;;3572144;40;20056;-71
2021/08/02 17:46:35;;;;;;;2.55;0.47;;;19.00;99.90;;;;;;3571845;40;20049;-73
2021/08/02 17:49:01;;;;;;;2.50;0.95;;;18.90;99.90;;;;;;3573089;40;20080;-71
2021/08/02 17:51:27;;;;;;;3.92;0.70;;;19.00;99.90;;;;;;3571121;40;20329;-71
2021/08/02 17:53:53;;;;;;;3.38;0.60;;;18.90;99.90;;;;;;3572921;40;20056;-72
2021/08/02 17:56:19;;;;;;;4.18;1.05;;;18.90;99.90;;;;;;3573241;40;20552;-72
2021/08/02 17:58:45;;;;;;;2.38;0.98;;;18.90;99.90;;;;;;3572998;40;20415;-72
2021/08/02 18:01:12;;;;;;;3.42;0.60;;;18.90;99.90;;;;;;3571193;40;20053;-73
2021/08/02 18:03:38;;;;;;;4.15;0.47;;;19.00;99.90;;;;;;3572656;40;20154;-72
2021/08/02 18:06:05;;;;;;;2.83;0.55;;;18.60;99.90;;;;;;3573389;40;20079;-72
2021/08/02 18:08:31;;;;;;;3.20;0.50;;;18.70;99.90;;;;;;3572809;40;20096;-73
2021/08/02 18:10:57;;;;;;;2.15;0.50;;;18.50;99.90;;;;;;3572961;40;20063;-72
2021/08/02 18:13:23;;;;;;;2.58;0.57;;;18.40;99.90;;;;;;3572050;40;20633;-71
2021/08/02 18:15:48;;;;;;;3.80;1.00;;;18.50;99.90;;;;;;3572747;40;20068;-73
2021/08/02 18:18:14;;;;;;;2.40;0.47;;;18.20;99.90;;;;;;3572519;40;20077;-73
2021/08/02 18:20:40;;;;;;;2.90;0.50;;;18.50;99.90;;;;;;3573458;40;20419;-73
2021/08/02 18:23:06;;;;;;;2.50;0.57;;;18.20;99.90;;;;;;3573383;40;20059;-73
2021/08/02 18:25:32;;;;;;;1.80;0.75;;;18.50;99.90;;;;;;3569154;40;20272;-71
2021/08/02 18:27:58;;;;;;;1.95;0.68;;;18.30;99.90;;;;;;3573182;40;20055;-72
2021/08/02 18:30:24;;;;;;;4.38;0.50;;;17.90;99.90;;;;;;3570229;40;20405;-75
2021/08/02 18:32:50;;;;;;;2.90;0.50;;;18.10;99.90;;;;;;3570128;40;20086;-70
2021/08/02 18:35:17;;;;;;;4.80;1.00;;;17.70;99.90;;;;;;3572139;40;20410;-72
2021/08/02 18:37:44;;;;;;;3.72;0.70;;;17.90;99.90;;;;;;3573090;40;20080;-71
2021/08/02 18:40:10;;;;;;;2.33;0.70;;;17.90;99.90;;;;;;3573425;40;20069;-71
2021/08/02 18:42:36;;;;;;;3.60;1.00;;;18.10;99.90;;;;;;3573323;40;20041;-72
2021/08/02 18:45:04;;;;;;;2.63;0.60;;;17.80;99.90;;;;;;3572655;40;20049;-72
2021/08/02 18:47:30;;;;;;;2.33;1.15;;;17.80;99.90;;;;;;3573232;40;20079;-77
2021/08/02 18:49:55;;;;;;;4.18;0.60;;;17.80;99.90;;;;;;3572836;40;20372;-74
2021/08/02 18:52:21;;;;;;;3.20;0.80;;;17.80;99.90;;;;;;3573647;40;20059;-72
2021/08/02 18:54:47;;;;;;;1.92;0.60;;;17.70;99.90;;;;;;3574075;40;20386;-73
2021/08/02 18:57:12;;;;;;;1.80;0.75;;;17.70;99.90;;;;;;3573709;40;20049;-73
2021/08/02 18:59:38;;;;;;;4.85;0.57;;;17.70;99.90;;;;;;3572250;40;20072;-71
2021/08/02 19:02:04;;;;;;;4.13;0.93;;;17.60;99.90;;;;;;3572284;40;20126;-72
2021/08/02 19:04:30;;;;;;;2.33;0.70;;;17.60;99.90;;;;;;3571938;40;20086;-71
2021/08/02 19:06:56;;;;;;;3.25;0.90;;;17.70;99.90;;;;;;3572079;40;20037;-72
2021/08/02 19:09:22;;;;;;;2.30;0.60;;;17.60;99.90;;;;;;3571248;40;20373;-72